createdAt,value
2022-10-02T00:02:44.950Z,2.22
2022-10-02T00:05:37.592Z,1.80
2022-10-02T00:08:13.429Z,2.40
2022-10-02T00:10:55.018Z,3.20
2022-10-02T00:13:35.492Z,1.92
2022-10-02T00:16:05.308Z,2.22
2022-10-02T00:18:35.327Z,2.10
2022-10-02T00:21:14.433Z,1.88
2022-10-02T00:23:48.945Z,2.10
2022-10-02T00:26:22.476Z,2.72
2022-10-02T00:28:52.886Z,2.00
2022-10-02T00:33:50.421Z,2.55
2022-10-02T00:36:42.005Z,2.17
2022-10-02T00:39:22.814Z,2.20
2022-10-02T00:41:50.131Z,2.22
2022-10-02T00:44:28.686Z,2.35
2022-10-02T00:47:01.810Z,2.25
2022-10-02T00:49:52.509Z,2.30
2022-10-02T00:52:47.585Z,1.98
2022-10-02T00:55:38.009Z,2.15
2022-10-02T01:00:53.673Z,2.00
2022-10-02T01:03:26.762Z,2.72
2022-10-02T01:05:54.122Z,2.15
2022-10-02T01:08:21.817Z,2.50
2022-10-02T01:10:49.684Z,2.80
2022-10-02T01:13:17.111Z,1.45
2022-10-02T01:15:50.586Z,2.22
2022-10-02T01:18:18.026Z,2.10
2022-10-02T01:20:50.725Z,2.13
2022-10-02T01:23:48.129Z,2.45
2022-10-02T01:26:15.546Z,2.35
2022-10-02T01:28:42.942Z,2.15
2022-10-02T01:31:13.180Z,2.30
2022-10-02T01:36:11.466Z,1.88
2022-10-02T01:38:39.843Z,3.42
2022-10-02T01:41:08.135Z,2.67
2022-10-02T01:43:38.825Z,2.00
2022-10-02T01:46:31.451Z,1.95
2022-10-02T01:49:19.311Z,1.73
2022-10-02T01:51:49.375Z,1.67
2022-10-02T01:54:51.625Z,1.92
2022-10-02T01:57:31.859Z,2.00
2022-10-02T02:00:02.280Z,2.38
2022-10-02T02:02:41.531Z,2.72
2022-10-02T02:05:42.800Z,2.08
2022-10-02T02:08:22.063Z,2.33
2022-10-02T02:10:58.608Z,2.03
2022-10-02T02:13:31.850Z,2.15
2022-10-02T02:16:02.308Z,2.30
2022-10-02T02:18:34.381Z,2.53
2022-10-02T02:21:09.895Z,2.30
2022-10-02T02:23:39.617Z,2.75
2022-10-02T02:26:12.400Z,2.22
2022-10-02T02:28:48.210Z,2.88
2022-10-02T02:31:18.867Z,4.30
2022-10-02T02:33:52.612Z,2.40
2022-10-02T02:36:24.263Z,3.03
2022-10-02T02:38:58.783Z,3.03
2022-10-02T02:41:29.027Z,2.88
2022-10-02T02:43:56.765Z,3.10
2022-10-02T02:46:57.866Z,2.47
2022-10-02T02:49:27.441Z,3.30
2022-10-02T02:51:58.434Z,3.85
2022-10-02T02:54:29.371Z,2.88
2022-10-02T02:57:00.655Z,3.08
2022-10-02T02:59:31.475Z,3.72
2022-10-02T03:01:59.262Z,3.55
2022-10-02T03:04:26.624Z,3.33
2022-10-02T03:06:58.674Z,2.72
2022-10-02T03:09:27.765Z,3.30
2022-10-02T03:12:16.839Z,3.85
2022-10-02T03:14:49.614Z,2.97
2022-10-02T03:17:40.632Z,3.25
2022-10-02T03:20:39.815Z,3.45
2022-10-02T03:23:12.290Z,3.25
2022-10-02T03:25:48.453Z,3.60
2022-10-02T03:28:37.402Z,3.60
2022-10-02T03:31:06.916Z,4.30
2022-10-02T03:33:36.489Z,3.15
2022-10-02T03:36:04.865Z,3.57
2022-10-02T03:38:33.414Z,2.92
2022-10-02T03:41:00.820Z,4.00
2022-10-02T03:43:30.018Z,3.28
2022-10-02T03:45:57.707Z,3.33
2022-10-02T03:48:25.100Z,3.47
2022-10-02T03:50:52.466Z,3.60
2022-10-02T03:53:29.292Z,3.50
2022-10-02T03:56:10.096Z,3.60
2022-10-02T03:58:43.308Z,3.35
2022-10-02T04:01:33.673Z,3.40
2022-10-02T04:06:37.656Z,4.45
2022-10-02T04:09:17.287Z,3.38
2022-10-02T04:11:49.614Z,3.15
2022-10-02T04:14:44.438Z,3.67
2022-10-02T04:17:32.968Z,3.22
2022-10-02T04:20:05.406Z,4.35
2022-10-02T04:22:38.268Z,3.25
2022-10-02T04:25:17.305Z,3.65
2022-10-02T04:27:50.943Z,4.40
2022-10-02T04:30:19.268Z,4.70
2022-10-02T04:32:47.459Z,3.63
2022-10-02T04:35:17.722Z,5.15
2022-10-02T04:38:09.237Z,3.67
2022-10-02T04:41:01.039Z,3.30
2022-10-02T04:43:52.682Z,3.30
2022-10-02T04:46:49.749Z,3.63
2022-10-02T04:49:26.202Z,3.70
2022-10-02T04:51:59.774Z,4.53
2022-10-02T04:54:34.088Z,4.00
2022-10-02T04:57:18.660Z,3.67
2022-10-02T05:00:10.269Z,3.75
2022-10-02T05:02:40.597Z,4.13
2022-10-02T05:07:50.314Z,3.90
2022-10-02T05:10:47.499Z,4.05
2022-10-02T05:13:53.763Z,3.72
2022-10-02T05:16:32.721Z,4.63
2022-10-02T05:19:11.921Z,4.43
2022-10-02T05:21:39.255Z,3.80
2022-10-02T05:24:43.392Z,3.90
2022-10-02T05:27:39.296Z,3.97
2022-10-02T05:30:12.843Z,4.47
2022-10-02T05:32:45.615Z,4.13
2022-10-02T05:35:24.107Z,3.78
2022-10-02T05:38:00.339Z,5.72
2022-10-02T05:40:52.256Z,2.92
2022-10-02T05:43:40.151Z,2.78
2022-10-02T05:46:12.367Z,3.10
2022-10-02T05:48:47.386Z,2.70
2022-10-02T05:51:22.900Z,3.45
2022-10-02T05:53:57.206Z,3.95
2022-10-02T05:56:43.047Z,3.13
2022-10-02T05:59:13.471Z,4.47
2022-10-02T06:01:43.282Z,3.65
2022-10-02T06:04:37.339Z,4.00
2022-10-02T06:07:09.475Z,3.45
2022-10-02T06:09:36.802Z,3.00
2022-10-02T06:12:07.509Z,4.03
2022-10-02T06:14:39.357Z,3.03
2022-10-02T06:17:06.677Z,3.67
2022-10-02T06:19:37.396Z,4.60
2022-10-02T06:22:08.237Z,3.60
2022-10-02T06:24:55.937Z,3.20
2022-10-02T06:27:36.141Z,3.30
2022-10-02T06:30:04.581Z,3.80
2022-10-02T06:32:44.837Z,3.75
2022-10-02T06:35:13.025Z,3.50
2022-10-02T06:37:40.341Z,3.30
2022-10-02T06:40:29.843Z,3.30
2022-10-02T06:43:20.413Z,4.30
2022-10-02T06:45:47.806Z,3.78
2022-10-02T06:48:31.686Z,3.30
2022-10-02T06:50:58.988Z,4.28
2022-10-02T06:53:29.350Z,3.38
2022-10-02T06:58:47.599Z,3.80
2022-10-02T07:01:18.742Z,3.40
2022-10-02T07:04:07.262Z,3.75
2022-10-02T07:06:50.555Z,3.83
2022-10-02T07:09:55.803Z,4.05
2022-10-02T07:12:41.203Z,3.70
2022-10-02T07:15:25.197Z,4.75
2022-10-02T07:18:07.154Z,3.58
2022-10-02T07:20:55.211Z,3.95
2022-10-02T07:23:26.594Z,4.50
2022-10-02T07:26:11.571Z,4.40
2022-10-02T07:28:39.771Z,3.72
2022-10-02T07:31:18.334Z,4.10
2022-10-02T07:34:03.116Z,4.18
2022-10-02T07:36:40.102Z,4.07
2022-10-02T07:39:07.403Z,4.65
2022-10-02T07:41:44.138Z,4.38
2022-10-02T07:44:47.017Z,3.65
2022-10-02T07:47:41.285Z,3.97
2022-10-02T07:50:12.996Z,3.67
2022-10-02T07:53:00.608Z,3.53
2022-10-02T07:55:28.350Z,3.72
2022-10-02T07:57:55.756Z,3.72
2022-10-02T08:00:26.919Z,4.35
2022-10-02T08:02:57.245Z,4.35
2022-10-02T08:08:00.006Z,3.50
2022-10-02T08:10:28.414Z,3.97
2022-10-02T08:13:00.933Z,3.80
2022-10-02T08:15:30.507Z,3.60
2022-10-02T08:18:11.016Z,4.70
2022-10-02T08:20:47.775Z,3.70
2022-10-02T08:23:29.480Z,3.92
2022-10-02T08:26:14.881Z,4.18
2022-10-02T08:28:42.141Z,3.63
2022-10-02T08:31:12.033Z,4.35
2022-10-02T08:33:39.948Z,3.95
2022-10-02T08:36:13.710Z,4.22
2022-10-02T08:39:05.952Z,3.20
2022-10-02T08:42:11.542Z,3.72
2022-10-02T08:44:39.547Z,5.28
2022-10-02T08:47:07.332Z,3.75
2022-10-02T08:49:52.609Z,4.32
2022-10-02T08:52:42.008Z,3.42
2022-10-02T08:55:33.727Z,3.30
2022-10-02T08:58:01.905Z,4.13
2022-10-02T09:00:50.997Z,3.88
2022-10-02T09:03:25.899Z,4.45
2022-10-02T09:06:04.689Z,3.00
2022-10-02T09:08:57.335Z,3.00
2022-10-02T09:11:45.104Z,2.70
2022-10-02T09:14:16.997Z,2.97
2022-10-02T09:17:21.684Z,3.03
2022-10-02T09:20:10.223Z,4.53
2022-10-02T09:23:05.246Z,3.45
2022-10-02T09:25:36.169Z,3.45
2022-10-02T09:28:32.296Z,3.15
2022-10-02T09:31:19.143Z,3.90
2022-10-02T09:34:23.515Z,3.03
2022-10-02T09:36:51.119Z,4.20
2022-10-02T09:39:45.997Z,3.75
2022-10-02T09:42:29.134Z,4.70
2022-10-02T09:45:01.532Z,4.78
2022-10-02T09:48:07.111Z,3.55
2022-10-02T09:50:37.425Z,2.60
2022-10-02T09:53:04.983Z,2.90
2022-10-02T09:55:43.115Z,3.63
2022-10-02T09:59:02.470Z,3.10
2022-10-02T10:02:04.716Z,3.05
2022-10-02T10:05:05.593Z,3.65
2022-10-02T10:07:52.260Z,5.20
2022-10-02T10:10:38.264Z,5.07
2022-10-02T10:13:26.817Z,4.22
2022-10-02T10:16:31.363Z,4.80
2022-10-02T10:19:23.741Z,5.45
2022-10-02T10:22:21.012Z,4.28
2022-10-02T10:25:14.289Z,4.22
2022-10-02T10:27:53.600Z,3.88
2022-10-02T10:30:21.615Z,4.65
2022-10-02T10:33:16.797Z,4.18
2022-10-02T10:36:35.783Z,6.78
2022-10-02T10:39:53.192Z,6.07
2022-10-02T10:42:20.880Z,6.55
2022-10-02T10:45:27.595Z,6.15
2022-10-02T10:48:04.240Z,6.38
2022-10-02T10:50:35.862Z,5.10
2022-10-02T10:53:24.448Z,6.15
2022-10-02T10:56:13.410Z,5.78
2022-10-02T10:58:41.213Z,5.55
2022-10-02T11:01:18.883Z,3.97
2022-10-02T11:03:52.477Z,4.18
2022-10-02T11:06:22.931Z,3.50
2022-10-02T11:09:28.420Z,3.08
2022-10-02T11:11:58.569Z,3.75
2022-10-02T11:14:29.001Z,4.57
2022-10-02T11:17:17.250Z,4.20
2022-10-02T11:20:06.706Z,4.40
2022-10-02T11:22:40.118Z,3.53
2022-10-02T11:25:30.321Z,3.20
2022-10-02T11:28:03.950Z,4.03
2022-10-02T11:30:49.545Z,3.05
2022-10-02T11:33:42.479Z,3.05
2022-10-02T11:37:05.845Z,4.07
2022-10-02T11:39:59.503Z,3.40
2022-10-02T11:42:46.650Z,3.78
2022-10-02T11:45:13.982Z,3.72
2022-10-02T11:47:47.266Z,3.13
2022-10-02T11:50:43.391Z,3.33
2022-10-02T11:53:11.313Z,3.47
2022-10-02T11:56:01.150Z,4.18
2022-10-02T11:58:41.919Z,3.92
2022-10-02T12:01:45.358Z,3.97
2022-10-02T12:04:46.728Z,3.75
2022-10-02T12:07:32.084Z,3.88
2022-10-02T12:10:17.487Z,3.72
2022-10-02T12:13:30.944Z,3.65
2022-10-02T12:16:08.197Z,3.75
2022-10-02T12:18:56.204Z,3.65
2022-10-02T12:21:42.038Z,3.75
2022-10-02T12:25:16.033Z,3.28
2022-10-02T12:27:43.455Z,4.43
2022-10-02T12:30:18.606Z,3.25
2022-10-02T12:33:08.903Z,3.15
2022-10-02T12:38:23.463Z,3.70
2022-10-02T12:40:53.965Z,3.45
2022-10-02T12:43:39.012Z,3.65
2022-10-02T12:46:06.389Z,4.15
2022-10-02T12:48:49.339Z,3.42
2022-10-02T12:51:16.666Z,3.15
2022-10-02T12:53:56.800Z,3.03
2022-10-02T12:56:57.955Z,3.08
2022-10-02T12:59:49.923Z,3.00
2022-10-02T13:02:56.062Z,3.53
2022-10-02T13:05:55.299Z,3.33
2022-10-02T13:08:43.151Z,3.40
2022-10-02T13:11:57.716Z,2.78
2022-10-02T13:14:26.463Z,3.33
2022-10-02T13:17:36.044Z,3.05
2022-10-02T13:20:45.820Z,2.87
2022-10-02T13:23:36.128Z,3.28
2022-10-02T13:26:26.622Z,3.97
2022-10-02T13:29:13.768Z,4.38
2022-10-02T13:31:41.387Z,4.68
2022-10-02T13:34:17.631Z,3.70
2022-10-02T13:37:01.885Z,2.10
2022-10-02T13:40:05.607Z,2.30
2022-10-02T13:43:12.421Z,2.78
2022-10-02T13:45:45.908Z,2.30
2022-10-02T13:48:43.011Z,2.30
2022-10-02T13:51:20.782Z,2.70
2022-10-02T13:54:03.158Z,2.30
2022-10-02T13:56:36.700Z,2.50
2022-10-02T13:59:24.496Z,3.00
2022-10-02T14:01:54.823Z,2.40
2022-10-02T14:07:05.367Z,2.45
2022-10-02T14:09:41.314Z,2.47
2022-10-02T14:12:14.421Z,2.83
2022-10-02T14:14:44.782Z,2.67
2022-10-02T14:20:00.000Z,2.83
2022-10-02T14:22:27.421Z,2.58
2022-10-02T14:25:10.171Z,2.25
2022-10-02T14:27:49.310Z,2.30
2022-10-02T14:30:21.387Z,2.50
2022-10-02T14:33:03.061Z,2.53
2022-10-02T14:35:39.154Z,2.63
2022-10-02T14:38:06.492Z,2.22
2022-10-02T14:40:40.276Z,2.08
2022-10-02T14:43:10.793Z,1.90
2022-10-02T14:45:52.856Z,2.20
2022-10-02T14:48:41.400Z,3.03
2022-10-02T14:51:08.951Z,2.13
2022-10-02T14:53:58.979Z,2.40
2022-10-02T14:56:54.509Z,2.08
2022-10-02T14:59:49.405Z,2.13
2022-10-02T15:02:28.682Z,2.05
2022-10-02T15:05:07.524Z,2.72
2022-10-02T15:07:35.664Z,2.42
2022-10-02T15:10:22.587Z,2.83
2022-10-02T15:13:01.663Z,1.95
2022-10-02T15:18:58.723Z,2.28
2022-10-02T15:21:32.301Z,2.83
2022-10-02T15:24:00.123Z,2.30
2022-10-02T15:27:03.047Z,1.90
2022-10-02T15:29:44.935Z,1.70
2022-10-02T15:32:15.408Z,1.95
2022-10-02T15:37:14.167Z,1.92
2022-10-02T15:39:47.493Z,1.52
2022-10-02T15:42:35.609Z,1.60
2022-10-02T15:45:08.869Z,1.70
2022-10-02T15:47:53.944Z,2.15
2022-10-02T15:50:44.141Z,1.48
2022-10-02T15:56:04.013Z,1.75
2022-10-02T15:58:31.498Z,1.38
2022-10-02T16:01:26.879Z,1.50
2022-10-02T16:04:00.407Z,1.63
2022-10-02T16:06:56.908Z,1.60
2022-10-02T16:09:24.472Z,1.48
2022-10-02T16:12:01.342Z,1.02
2022-10-02T16:14:49.942Z,1.65
2022-10-02T16:17:31.122Z,1.40
2022-10-02T16:20:23.129Z,1.17
2022-10-02T16:23:08.799Z,1.50
2022-10-02T16:26:06.346Z,1.25
2022-10-02T16:28:49.207Z,1.40
2022-10-02T16:31:23.249Z,1.65
2022-10-02T16:33:51.122Z,1.38
2022-10-02T16:36:19.048Z,1.42
2022-10-02T16:38:51.782Z,3.00
2022-10-02T16:41:40.140Z,1.42
2022-10-02T16:44:49.948Z,1.30
2022-10-02T16:47:17.394Z,1.95
2022-10-02T16:50:17.019Z,2.05
2022-10-02T16:52:58.024Z,1.50
2022-10-02T16:55:25.331Z,1.30
2022-10-02T16:58:00.127Z,1.63
2022-10-02T17:00:53.307Z,1.70
2022-10-02T17:03:44.609Z,1.73
2022-10-02T17:06:19.641Z,2.35
2022-10-02T17:08:47.092Z,2.53
2022-10-02T17:11:35.645Z,2.15
2022-10-02T17:14:23.445Z,1.80
2022-10-02T17:17:20.196Z,2.38
2022-10-02T17:19:49.944Z,2.15
2022-10-02T17:22:33.297Z,2.00
2022-10-02T17:25:20.872Z,2.10
2022-10-02T17:28:11.416Z,2.17
2022-10-02T17:31:00.516Z,3.08
2022-10-02T17:33:40.225Z,2.70
2022-10-02T17:36:57.385Z,2.40
2022-10-02T17:39:24.761Z,2.45
2022-10-02T17:42:10.344Z,2.08
2022-10-02T17:44:46.299Z,2.33
2022-10-02T17:47:35.363Z,2.15
2022-10-02T17:50:38.313Z,2.92
2022-10-02T17:53:50.536Z,2.13
2022-10-02T17:56:44.143Z,2.00
2022-10-02T17:59:35.701Z,2.00
2022-10-02T18:02:18.714Z,2.45
2022-10-02T18:05:23.413Z,2.28
2022-10-02T18:08:07.710Z,2.00
2022-10-02T18:10:35.519Z,2.08
2022-10-02T18:13:14.480Z,2.47
2022-10-02T18:16:10.228Z,2.65
2022-10-02T18:19:09.518Z,2.10
2022-10-02T18:21:37.648Z,2.30
2022-10-02T18:24:27.934Z,2.47
2022-10-02T18:27:23.026Z,2.70
2022-10-02T18:30:19.327Z,2.08
2022-10-02T18:33:05.269Z,2.58
2022-10-02T18:35:38.921Z,1.92
2022-10-02T18:38:15.763Z,1.95
2022-10-02T18:40:49.612Z,2.33
2022-10-02T18:43:31.444Z,2.17
2022-10-02T18:46:36.792Z,2.30
2022-10-02T18:49:15.574Z,2.20
2022-10-02T18:51:45.380Z,2.15
2022-10-02T18:54:12.729Z,2.75
2022-10-02T18:56:55.340Z,2.97
2022-10-02T18:59:22.643Z,1.58
2022-10-02T19:02:15.199Z,2.10
2022-10-02T19:04:45.471Z,2.65
2022-10-02T19:07:19.396Z,2.33
2022-10-02T19:09:47.359Z,2.22
2022-10-02T19:12:25.174Z,2.55
2022-10-02T19:15:13.514Z,3.15
2022-10-02T19:17:41.340Z,2.72
2022-10-02T19:20:35.315Z,2.63
2022-10-02T19:23:03.633Z,2.85
2022-10-02T19:25:31.214Z,3.15
2022-10-02T19:27:59.894Z,3.75
2022-10-02T19:30:30.806Z,3.35
2022-10-02T19:33:03.043Z,3.83
2022-10-02T19:35:40.893Z,4.38
2022-10-02T19:38:30.554Z,3.30
2022-10-02T19:41:00.746Z,3.42
2022-10-02T19:43:28.305Z,2.97
2022-10-02T19:45:57.416Z,3.70
2022-10-02T19:48:30.020Z,3.97
2022-10-02T19:50:59.609Z,4.43
2022-10-02T19:53:40.781Z,3.75
2022-10-02T19:56:13.197Z,4.13
2022-10-02T19:58:53.515Z,3.60
2022-10-02T20:03:53.395Z,3.10
2022-10-02T20:06:23.813Z,3.60
2022-10-02T20:09:12.280Z,3.55
2022-10-02T20:11:43.744Z,3.85
2022-10-02T20:14:34.433Z,3.85
2022-10-02T20:17:10.920Z,3.88
2022-10-02T20:19:51.883Z,3.95
2022-10-02T20:22:36.837Z,3.88
2022-10-02T20:25:29.664Z,4.18
2022-10-02T20:28:13.822Z,4.05
2022-10-02T20:30:44.806Z,4.35
2022-10-02T20:33:18.393Z,4.35
2022-10-02T20:35:51.737Z,4.45
2022-10-02T20:38:21.091Z,3.78
2022-10-02T20:40:53.258Z,3.27
2022-10-02T20:43:32.972Z,4.47
2022-10-02T20:46:25.315Z,3.20
2022-10-02T20:49:09.153Z,3.88
2022-10-02T20:51:45.037Z,4.45
2022-10-02T20:54:57.457Z,3.80
2022-10-02T20:58:00.672Z,4.20
2022-10-02T21:00:30.990Z,3.78
2022-10-02T21:03:30.946Z,3.47
2022-10-02T21:06:13.225Z,3.88
2022-10-02T21:09:01.965Z,3.13
2022-10-02T21:11:50.733Z,3.50
2022-10-02T21:14:21.725Z,2.50
2022-10-02T21:17:09.348Z,2.65
2022-10-02T21:19:52.301Z,3.22
2022-10-02T21:22:25.688Z,3.58
2022-10-02T21:25:15.560Z,3.58
2022-10-02T21:28:04.305Z,3.08
2022-10-02T21:30:39.286Z,3.45
2022-10-02T21:33:12.257Z,3.97
2022-10-02T21:35:56.858Z,3.17
2022-10-02T21:38:57.709Z,3.38
2022-10-02T21:41:53.580Z,4.35
2022-10-02T21:44:30.089Z,4.85
2022-10-02T21:47:28.047Z,3.67
2022-10-02T21:50:10.761Z,4.15
2022-10-02T21:52:56.396Z,4.07
2022-10-02T21:55:32.977Z,3.30
2022-10-02T21:58:13.290Z,3.83
2022-10-02T22:03:10.256Z,4.78
2022-10-02T22:06:11.144Z,3.50
2022-10-02T22:08:39.011Z,4.65
2022-10-02T22:11:12.240Z,4.70
2022-10-02T22:13:42.322Z,4.00
2022-10-02T22:16:45.202Z,4.13
2022-10-02T22:19:20.962Z,4.30
2022-10-02T22:21:54.269Z,4.43
2022-10-02T22:24:33.566Z,5.85
2022-10-02T22:27:04.055Z,4.03
2022-10-02T22:29:49.583Z,3.97
2022-10-02T22:32:54.071Z,3.10
2022-10-02T22:35:24.274Z,3.33
2022-10-02T22:38:09.993Z,3.13
2022-10-02T22:40:52.350Z,3.42
2022-10-02T22:43:28.217Z,3.55
2022-10-02T22:46:01.677Z,3.38
2022-10-02T22:48:29.129Z,3.00
2022-10-02T22:51:04.719Z,4.32
2022-10-02T22:54:16.359Z,2.95
2022-10-02T22:56:52.103Z,3.38
2022-10-02T22:59:24.032Z,2.78
2022-10-02T23:02:10.864Z,2.55
2022-10-02T23:04:38.207Z,3.00
2022-10-02T23:07:26.963Z,2.38
2022-10-02T23:10:12.124Z,2.78
2022-10-02T23:12:45.054Z,2.80
2022-10-02T23:15:24.666Z,2.80
2022-10-02T23:17:58.302Z,2.67
2022-10-02T23:20:36.187Z,3.30
2022-10-02T23:23:13.666Z,3.53
2022-10-02T23:25:55.856Z,2.17
2022-10-02T23:28:29.576Z,2.80
2022-10-02T23:31:06.305Z,3.08
2022-10-02T23:33:44.611Z,3.35
2022-10-02T23:36:14.745Z,2.65
2022-10-02T23:38:42.042Z,2.47
2022-10-02T23:41:47.211Z,2.17
2022-10-02T23:44:23.088Z,2.90
2022-10-02T23:46:50.418Z,2.72
2022-10-02T23:49:22.259Z,2.17
2022-10-02T23:51:52.227Z,2.13
2022-10-02T23:54:52.791Z,2.15
2022-10-02T23:57:20.198Z,2.42
2022-10-02T23:59:56.309Z,3.13
